Time;durP1;ratioP1;P1;durP2;ratioP2;P2;SDS_P1;SDS_P2;PMS_P1;PMS_P2;Temp;Humidity;BMP_temperature;BMP_pressure;BME280_temperature;BME280_humidity;BME280_pressure;Samples;Min_cycle;Max_cycle;Signal;HPM_P1;HPM_P2
2021/12/05 00:23:46;;;;;;;111.13;34.10;;;4.90;99.90;;;;;;5088124;28;20410;-73
2021/12/05 00:26:17;;;;;;;80.82;30.02;;;4.90;99.90;;;;;;5089265;28;20512;-73
2021/12/05 00:29:04;;;;;;;83.03;30.33;;;4.90;99.90;;;;;;5087687;28;20908;-72
2021/12/05 00:31:50;;;;;;;85.10;30.60;;;4.90;99.90;;;;;;5087977;28;20406;-73
2021/12/05 00:50:19;;;;;;;93.18;33.35;;;4.90;99.90;;;;;;5067650;28;20550;-73
2021/12/05 00:53:52;;;;;;;107.80;35.60;;;4.90;99.90;;;;;;5050798;28;20419;-73
2021/12/05 01:16:02;;;;;;;95.95;34.33;;;4.90;99.90;;;;;;5086116;28;20405;-74
2021/12/05 01:18:28;;;;;;;108.20;35.73;;;4.90;99.90;;;;;;5082818;28;20493;-74
2021/12/05 01:21:00;;;;;;;98.75;34.55;;;4.90;99.90;;;;;;5089032;28;20451;-74
2021/12/05 01:23:38;;;;;;;93.95;33.40;;;4.90;99.90;;;;;;5086486;28;20791;-74
2021/12/05 01:26:12;;;;;;;106.97;35.97;;;4.90;99.90;;;;;;5087528;28;20492;-74
2021/12/05 01:34:13;;;;;;;90.72;33.65;;;4.90;99.90;;;;;;5089539;28;20407;-73
2021/12/05 01:36:56;;;;;;;96.68;34.55;;;4.90;99.90;;;;;;5108199;28;20432;-74
2021/12/05 02:01:09;;;;;;;61.63;26.17;;;4.80;99.90;;;;;;5090185;28;20492;-74
2021/12/05 02:12:08;;;;;;;73.45;28.17;;;4.80;99.90;;;;;;5112567;28;20400;-74
2021/12/05 02:34:05;;;;;;;72.13;28.53;;;4.70;99.90;;;;;;5111972;28;20392;-73
2021/12/05 02:36:57;;;;;;;73.22;29.10;;;4.70;99.90;;;;;;5093550;28;20912;-74
2021/12/05 02:42:29;;;;;;;66.03;26.42;;;4.70;99.90;;;;;;5056003;28;20421;-74
2021/12/05 02:44:55;;;;;;;67.88;26.80;;;4.70;99.90;;;;;;5093354;28;20761;-74
2021/12/05 02:47:25;;;;;;;57.10;25.55;;;4.70;99.90;;;;;;5111801;28;20404;-74
2021/12/05 02:49:54;;;;;;;61.20;25.97;;;4.70;99.90;;;;;;5093214;28;20427;-74
2021/12/05 02:52:28;;;;;;;51.97;24.42;;;4.70;99.90;;;;;;5111343;28;20401;-74
2021/12/05 02:55:05;;;;;;;51.47;22.47;;;4.70;99.90;;;;;;5076258;28;21359;-74
2021/12/05 03:00:15;;;;;;;55.70;24.40;;;4.60;99.90;;;;;;5093634;28;21111;-74
2021/12/05 03:02:44;;;;;;;50.47;22.95;;;4.60;99.90;;;;;;5111023;28;20396;-73
2021/12/05 03:05:14;;;;;;;45.85;23.05;;;4.60;99.90;;;;;;5092814;28;21164;-74
2021/12/05 03:07:42;;;;;;;51.80;23.23;;;4.50;99.90;;;;;;5076162;28;20922;-74
2021/12/05 03:10:11;;;;;;;47.88;23.20;;;4.50;99.90;;;;;;5092739;28;20926;-74
2021/12/05 03:12:38;;;;;;;44.22;22.17;;;4.50;99.90;;;;;;5093239;28;20451;-74
2021/12/05 03:15:10;;;;;;;45.92;22.42;;;4.50;99.90;;;;;;5092849;28;20412;-74
2021/12/05 03:17:36;;;;;;;43.28;22.15;;;4.50;99.90;;;;;;5075755;28;20403;-73
2021/12/05 03:20:03;;;;;;;42.60;22.63;;;4.50;99.90;;;;;;5092976;28;20404;-74
2021/12/05 03:22:29;;;;;;;40.57;21.47;;;4.50;99.90;;;;;;5091845;28;21094;-73
2021/12/05 03:24:55;;;;;;;38.07;20.80;;;4.50;99.90;;;;;;5076001;28;20503;-73
2021/12/05 03:27:20;;;;;;;39.45;22.13;;;4.50;99.90;;;;;;5111298;28;20396;-73
2021/12/05 03:29:46;;;;;;;43.93;22.73;;;4.50;99.90;;;;;;5074947;28;20438;-74
2021/12/05 03:32:12;;;;;;;44.23;22.50;;;4.50;99.90;;;;;;5092901;28;20450;-73
2021/12/05 03:34:37;;;;;;;44.40;22.65;;;4.60;99.90;;;;;;5110815;28;20407;-74
2021/12/05 03:37:04;;;;;;;43.57;23.47;;;4.50;99.90;;;;;;5092525;28;21078;-74
2021/12/05 03:39:30;;;;;;;41.05;22.88;;;4.60;99.90;;;;;;5075596;28;20416;-74
2021/12/05 03:41:57;;;;;;;45.13;23.05;;;4.50;99.90;;;;;;5092802;28;20396;-73
2021/12/05 03:44:29;;;;;;;39.38;22.05;;;4.50;99.90;;;;;;5075410;28;20901;-74
2021/12/05 03:46:56;;;;;;;39.55;21.58;;;4.60;99.90;;;;;;5092679;28;20424;-74
2021/12/05 03:49:23;;;;;;;34.53;20.80;;;4.50;99.90;;;;;;5075285;28;20417;-73
2021/12/05 03:51:59;;;;;;;36.45;20.90;;;4.60;99.90;;;;;;5092186;28;20460;-73
2021/12/05 03:54:25;;;;;;;30.63;19.52;;;4.50;99.90;;;;;;5110600;28;20403;-74
2021/12/05 03:56:51;;;;;;;36.45;20.67;;;4.50;99.90;;;;;;5092168;28;20404;-74
2021/12/05 03:59:18;;;;;;;35.70;20.77;;;4.50;99.90;;;;;;5092225;28;20412;-74
2021/12/05 04:01:45;;;;;;;33.83;20.23;;;4.50;99.90;;;;;;5091906;28;20451;-74
2021/12/05 04:04:11;;;;;;;37.55;20.80;;;4.50;99.90;;;;;;5075557;28;20401;-73
2021/12/05 04:06:38;;;;;;;34.47;20.67;;;4.50;99.90;;;;;;5074699;28;20436;-73
2021/12/05 04:09:08;;;;;;;35.57;21.03;;;4.50;99.90;;;;;;5091823;28;20969;-74
2021/12/05 04:11:40;;;;;;;36.75;20.23;;;4.50;99.90;;;;;;5075157;28;20836;-73
2021/12/05 04:14:08;;;;;;;37.33;20.60;;;4.50;99.90;;;;;;5091474;28;20479;-74
2021/12/05 04:16:35;;;;;;;35.40;20.40;;;4.50;99.90;;;;;;5091954;28;20484;-74
2021/12/05 04:19:00;;;;;;;34.75;19.90;;;4.50;99.90;;;;;;5109801;28;20440;-74
2021/12/05 04:21:29;;;;;;;35.38;20.70;;;4.50;99.90;;;;;;5091731;28;20825;-73
2021/12/05 04:23:54;;;;;;;31.83;19.80;;;4.50;99.90;;;;;;5091535;28;20404;-74
2021/12/05 04:26:20;;;;;;;34.85;20.00;;;4.50;99.90;;;;;;5110065;28;20435;-74
2021/12/05 04:28:47;;;;;;;36.55;20.92;;;4.50;99.90;;;;;;5088216;28;20434;-73
2021/12/05 04:31:14;;;;;;;34.50;20.85;;;4.50;99.90;;;;;;5070975;28;20430;-73
2021/12/05 04:33:39;;;;;;;30.35;19.73;;;4.50;99.90;;;;;;5087613;28;20406;-74
2021/12/05 04:36:07;;;;;;;33.97;20.48;;;4.50;99.90;;;;;;5088125;28;20516;-74
2021/12/05 04:38:33;;;;;;;37.42;20.88;;;4.50;99.90;;;;;;5087799;28;20406;-74
2021/12/05 04:40:59;;;;;;;35.13;20.60;;;4.50;99.90;;;;;;5089252;28;20409;-74
2021/12/05 04:43:25;;;;;;;42.28;22.92;;;4.50;99.90;;;;;;5088156;28;20768;-74
2021/12/05 04:45:50;;;;;;;35.17;20.17;;;4.60;99.90;;;;;;5087389;28;20394;-74
2021/12/05 04:48:16;;;;;;;39.13;21.92;;;4.50;99.90;;;;;;5089358;28;20479;-74
2021/12/05 04:50:44;;;;;;;35.38;22.08;;;4.50;99.90;;;;;;5089178;28;20983;-73
2021/12/05 04:53:10;;;;;;;36.05;21.15;;;4.60;99.90;;;;;;5088002;28;20486;-74
2021/12/05 04:55:36;;;;;;;38.75;22.95;;;4.60;99.90;;;;;;5087434;28;20899;-74
2021/12/05 04:58:05;;;;;;;39.72;22.40;;;4.60;99.90;;;;;;5087419;28;20788;-73
2021/12/05 05:00:36;;;;;;;44.47;24.70;;;4.60;99.90;;;;;;5089126;28;20417;-74
2021/12/05 05:03:04;;;;;;;41.25;23.50;;;4.60;99.90;;;;;;5088871;28;20402;-74
2021/12/05 05:05:30;;;;;;;41.85;23.63;;;4.60;99.90;;;;;;5087591;28;20406;-74
2021/12/05 05:07:56;;;;;;;40.15;23.85;;;4.60;99.90;;;;;;5087175;28;20412;-74
2021/12/05 05:10:28;;;;;;;43.38;24.67;;;4.60;99.90;;;;;;5087072;28;20900;-74
2021/12/05 05:12:57;;;;;;;43.88;24.70;;;4.60;99.90;;;;;;5086989;28;20489;-74
2021/12/05 05:15:25;;;;;;;43.83;25.50;;;4.60;99.90;;;;;;5087120;28;21171;-74
2021/12/05 05:17:53;;;;;;;37.63;23.27;;;4.60;99.90;;;;;;5087180;28;20414;-74
2021/12/05 05:20:25;;;;;;;44.53;24.92;;;4.60;99.90;;;;;;5087273;28;20431;-73
2021/12/05 05:26:59;;;;;;;44.20;25.23;;;4.60;99.90;;;;;;5088161;28;20397;-74
2021/12/05 05:47:33;;;;;;;51.47;27.33;;;4.60;99.90;;;;;;5088373;28;20455;-74
2021/12/05 05:49:59;;;;;;;45.97;27.80;;;4.60;99.90;;;;;;5088244;28;20545;-73
2021/12/05 05:52:26;;;;;;;47.30;26.95;;;4.60;99.90;;;;;;5069748;28;21068;-74
2021/12/05 05:54:54;;;;;;;47.95;27.73;;;4.60;99.90;;;;;;5070084;28;20904;-73
2021/12/05 05:57:44;;;;;;;48.47;29.35;;;4.60;99.90;;;;;;5069821;28;20410;-73
2021/12/05 06:00:34;;;;;;;48.30;27.88;;;4.60;99.90;;;;;;5069539;28;20455;-73
2021/12/05 06:05:49;;;;;;;49.33;28.73;;;4.60;99.90;;;;;;5069564;28;20432;-74
2021/12/05 06:08:14;;;;;;;46.30;28.20;;;4.60;99.90;;;;;;5053343;28;20433;-74
2021/12/05 06:10:41;;;;;;;49.38;28.63;;;4.60;99.90;;;;;;5069486;28;20434;-73
2021/12/05 06:13:07;;;;;;;44.67;28.00;;;4.60;99.90;;;;;;5070258;28;20421;-74
2021/12/05 06:15:32;;;;;;;47.72;28.02;;;4.60;99.90;;;;;;5069399;28;20816;-74
2021/12/05 06:17:58;;;;;;;49.15;28.55;;;4.60;99.90;;;;;;5088056;28;20394;-74
2021/12/05 06:20:27;;;;;;;50.60;28.73;;;4.60;99.90;;;;;;5088192;28;20402;-74
2021/12/05 06:22:54;;;;;;;43.85;27.50;;;4.60;99.90;;;;;;5087832;28;20398;-74
2021/12/05 06:25:24;;;;;;;46.07;27.70;;;4.60;99.90;;;;;;5069523;28;20426;-74
2021/12/05 06:27:57;;;;;;;47.40;29.23;;;4.60;99.90;;;;;;5077017;28;21445;-74
2021/12/05 06:41:22;;;;;;;44.30;26.63;;;4.50;99.90;;;;;;5086635;28;20410;-74
2021/12/05 06:48:51;;;;;;;44.33;25.83;;;4.50;99.90;;;;;;5086400;28;20417;-74
2021/12/05 06:51:21;;;;;;;47.58;24.77;;;4.50;99.90;;;;;;5085933;28;20490;-74
2021/12/05 06:53:47;;;;;;;41.92;24.42;;;4.50;99.90;;;;;;5086275;28;20414;-73
2021/12/05 06:56:12;;;;;;;42.10;24.17;;;4.50;99.90;;;;;;5088114;28;20416;-74
2021/12/05 06:58:38;;;;;;;46.83;23.80;;;4.50;99.90;;;;;;5091219;28;21504;-74
2021/12/05 07:01:07;;;;;;;40.28;22.65;;;4.50;99.90;;;;;;5090086;28;20437;-74
2021/12/05 07:03:34;;;;;;;43.60;23.38;;;4.50;99.90;;;;;;5072899;28;20451;-74
2021/12/05 07:08:35;;;;;;;38.22;19.85;;;4.50;99.90;;;;;;5089056;28;20413;-74
2021/12/05 07:16:21;;;;;;;34.42;19.25;;;4.50;99.90;;;;;;5089295;28;20434;-74
2021/12/05 07:24:15;;;;;;;33.97;17.00;;;4.50;99.90;;;;;;5088835;28;20399;-74
2021/12/05 07:27:02;;;;;;;39.95;18.25;;;4.40;99.90;;;;;;5091171;28;20471;-74
2021/12/05 07:40:25;;;;;;;33.85;17.42;;;4.30;99.90;;;;;;5092385;28;20400;-74
2021/12/05 07:42:53;;;;;;;40.30;18.48;;;4.30;99.90;;;;;;5092463;28;20404;-74
2021/12/05 07:45:24;;;;;;;41.50;19.40;;;4.30;99.90;;;;;;5091497;28;20419;-74
2021/12/05 07:47:51;;;;;;;38.85;17.52;;;4.30;99.90;;;;;;5092183;28;20396;-74
2021/12/05 07:50:21;;;;;;;37.58;17.35;;;4.30;99.90;;;;;;5091673;28;20696;-74
2021/12/05 07:52:51;;;;;;;39.95;17.80;;;4.20;99.90;;;;;;5091878;28;20404;-74
2021/12/05 07:55:23;;;;;;;40.83;19.30;;;4.30;99.90;;;;;;5091942;28;20499;-74
2021/12/05 07:58:26;;;;;;;38.00;18.87;;;4.20;99.90;;;;;;5074856;28;20396;-74
2021/12/05 08:16:51;;;;;;;39.88;18.48;;;4.20;99.90;;;;;;5091524;28;20407;-73
2021/12/05 08:19:18;;;;;;;38.67;19.40;;;4.20;99.90;;;;;;5073793;28;20408;-74
2021/12/05 08:21:45;;;;;;;37.78;17.63;;;4.20;99.90;;;;;;5091268;28;20455;-74
2021/12/05 08:24:11;;;;;;;42.88;18.90;;;4.20;99.90;;;;;;5091152;28;20408;-74
2021/12/05 08:26:37;;;;;;;40.53;17.85;;;4.20;99.90;;;;;;5091233;28;20404;-74
2021/12/05 08:29:12;;;;;;;41.15;19.17;;;4.20;99.90;;;;;;5091120;28;20470;-74
2021/12/05 08:37:22;;;;;;;36.03;17.77;;;4.10;99.90;;;;;;5090928;28;20434;-74
2021/12/05 09:23:39;;;;;;;40.33;18.92;;;4.20;99.90;;;;;;5088981;28;20458;-75
2021/12/05 09:26:15;;;;;;;43.67;20.98;;;4.20;99.90;;;;;;5107387;28;20526;-75
2021/12/05 09:40:02;;;;;;;41.83;20.42;;;4.30;99.90;;;;;;5088840;28;20902;-75
2021/12/05 10:06:52;;;;;;;40.25;20.38;;;4.30;99.90;;;;;;5089861;28;20818;-73
2021/12/05 10:26:28;;;;;;;39.63;20.65;;;4.40;99.90;;;;;;5090370;28;20956;-73
2021/12/05 10:34:50;;;;;;;39.58;21.00;;;4.50;99.90;;;;;;5073707;28;20772;-73
2021/12/05 10:37:24;;;;;;;49.70;23.10;;;4.50;99.90;;;;;;5098786;28;20416;-74
2021/12/05 10:40:05;;;;;;;38.78;21.48;;;4.60;99.90;;;;;;5092524;28;20404;-74
2021/12/05 10:42:42;;;;;;;35.90;20.58;;;4.60;99.90;;;;;;5074806;28;20806;-73
2021/12/05 10:45:26;;;;;;;40.60;22.77;;;4.60;99.90;;;;;;5093434;28;20431;-73
2021/12/05 10:47:54;;;;;;;38.80;20.97;;;4.60;99.90;;;;;;5093471;28;20419;-72
2021/12/05 10:50:37;;;;;;;43.72;21.83;;;4.60;99.90;;;;;;5111748;28;20973;-72
2021/12/05 10:53:31;;;;;;;42.42;22.67;;;4.60;99.90;;;;;;5093024;28;20404;-73
2021/12/05 10:56:02;;;;;;;38.85;21.55;;;4.70;99.90;;;;;;5093046;28;20416;-73
2021/12/05 10:58:38;;;;;;;38.55;20.98;;;4.70;99.90;;;;;;5076189;28;20416;-73
2021/12/05 11:01:12;;;;;;;35.70;20.13;;;4.70;99.90;;;;;;5092678;28;20416;-73
2021/12/05 11:03:40;;;;;;;38.05;19.25;;;4.80;99.90;;;;;;5092860;28;20909;-73
2021/12/05 11:06:22;;;;;;;34.20;19.37;;;4.80;99.90;;;;;;5093040;28;20433;-74
2021/12/05 11:08:57;;;;;;;37.58;19.75;;;4.80;99.90;;;;;;5092708;28;20918;-74
2021/12/05 11:11:23;;;;;;;36.92;19.98;;;4.90;99.90;;;;;;5089117;28;20428;-75
2021/12/05 11:13:50;;;;;;;36.45;20.23;;;4.90;99.90;;;;;;5091977;28;20408;-75
2021/12/05 11:16:43;;;;;;;36.35;20.30;;;5.00;99.90;;;;;;5092775;28;20408;-74
2021/12/05 11:19:15;;;;;;;30.85;18.52;;;5.10;99.90;;;;;;5093154;28;20397;-74
2021/12/05 11:21:47;;;;;;;31.90;19.65;;;5.10;99.90;;;;;;5092425;28;20396;-75
2021/12/05 11:24:26;;;;;;;32.70;19.52;;;5.20;99.90;;;;;;5093045;28;20400;-74
2021/12/05 11:27:12;;;;;;;29.90;19.15;;;5.30;99.90;;;;;;5092346;28;20427;-73
2021/12/05 11:29:48;;;;;;;32.50;19.83;;;5.30;99.90;;;;;;5092518;28;20421;-73
2021/12/05 11:32:33;;;;;;;33.83;18.92;;;5.40;99.90;;;;;;5076338;28;20448;-72
2021/12/05 11:35:16;;;;;;;35.15;20.02;;;5.40;99.90;;;;;;5092584;28;20522;-73
2021/12/05 11:38:12;;;;;;;33.33;20.35;;;5.50;99.90;;;;;;5092631;28;20481;-72
2021/12/05 11:40:49;;;;;;;35.28;20.98;;;5.50;99.90;;;;;;5110956;28;20407;-73
2021/12/05 11:43:23;;;;;;;34.22;21.60;;;5.60;99.90;;;;;;5091107;28;20902;-73
2021/12/05 11:46:26;;;;;;;36.65;20.85;;;5.60;99.90;;;;;;5110659;28;20450;-72
2021/12/05 11:48:51;;;;;;;35.08;20.77;;;5.60;99.90;;;;;;5075494;28;20408;-73
2021/12/05 11:51:27;;;;;;;29.90;18.75;;;5.70;99.90;;;;;;5075700;28;20440;-72
2021/12/05 11:53:55;;;;;;;31.23;17.98;;;5.80;99.90;;;;;;5075595;28;20420;-73
2021/12/05 11:56:29;;;;;;;30.77;18.57;;;5.80;99.90;;;;;;5092240;28;20434;-72
2021/12/05 11:59:12;;;;;;;27.77;17.80;;;5.90;99.90;;;;;;5092186;28;20446;-73
2021/12/05 12:01:49;;;;;;;30.73;17.63;;;6.00;99.90;;;;;;5110605;28;20412;-73
2021/12/05 12:04:19;;;;;;;26.25;16.67;;;6.00;99.90;;;;;;5075342;28;20406;-73
2021/12/05 12:07:03;;;;;;;27.33;17.10;;;6.00;99.90;;;;;;5091934;28;20444;-73
2021/12/05 12:09:28;;;;;;;29.35;16.60;;;6.10;99.90;;;;;;5091617;28;20543;-73
2021/12/05 12:11:54;;;;;;;29.87;18.03;;;6.10;99.90;;;;;;5092412;28;20923;-73
2021/12/05 12:14:20;;;;;;;28.90;17.35;;;6.10;99.90;;;;;;5075276;28;20487;-73
2021/12/05 12:16:48;;;;;;;23.53;15.13;;;6.20;99.90;;;;;;5074970;28;20411;-73
2021/12/05 12:19:20;;;;;;;28.33;17.15;;;6.20;99.90;;;;;;5091427;28;20408;-75
2021/12/05 12:21:48;;;;;;;31.02;17.45;;;6.10;99.90;;;;;;5091987;28;20411;-75
2021/12/05 12:24:15;;;;;;;28.55;18.48;;;6.00;99.90;;;;;;5091959;28;20770;-75
2021/12/05 12:26:41;;;;;;;29.60;17.55;;;6.00;99.90;;;;;;5091543;28;20404;-75
2021/12/05 12:29:11;;;;;;;26.85;17.77;;;5.90;99.90;;;;;;5091247;28;20456;-75
2021/12/05 12:31:41;;;;;;;25.70;16.38;;;5.90;99.90;;;;;;5109955;28;20475;-75
2021/12/05 12:34:10;;;;;;;28.70;16.20;;;5.80;99.90;;;;;;5091318;28;20408;-75
2021/12/05 12:36:38;;;;;;;22.20;15.10;;;5.80;99.90;;;;;;5091324;28;20481;-75
2021/12/05 12:39:23;;;;;;;24.13;15.68;;;5.80;99.90;;;;;;5109693;28;20436;-73
2021/12/05 12:42:19;;;;;;;28.25;14.98;;;5.70;99.90;;;;;;5091427;28;20415;-73
2021/12/05 12:45:06;;;;;;;26.73;16.02;;;5.70;99.90;;;;;;5108679;28;21200;-73
2021/12/05 12:47:46;;;;;;;20.58;14.25;;;5.70;99.90;;;;;;5090170;28;20416;-73
2021/12/05 12:50:34;;;;;;;22.23;15.25;;;5.70;99.90;;;;;;5090275;28;21030;-73
2021/12/05 12:53:05;;;;;;;27.90;15.98;;;5.70;99.90;;;;;;5089969;28;20495;-73
2021/12/05 12:55:36;;;;;;;23.45;13.80;;;5.70;99.90;;;;;;5090163;28;20981;-73
2021/12/05 12:58:05;;;;;;;22.35;14.68;;;5.60;99.90;;;;;;5090132;28;20446;-75
2021/12/05 13:00:34;;;;;;;26.80;15.43;;;5.60;99.90;;;;;;5089985;28;20408;-73
2021/12/05 13:03:12;;;;;;;25.92;15.25;;;5.60;99.90;;;;;;5090002;28;20411;-73
2021/12/05 13:07:16;;;;;;;24.33;14.68;;;5.60;99.90;;;;;;5108123;28;20392;-71
2021/12/05 13:11:19;;;;;;;26.50;15.25;;;5.60;99.90;;;;;;5107802;28;20436;-71
2021/12/05 13:14:01;;;;;;;28.15;15.93;;;5.60;99.90;;;;;;5089685;28;20404;-72
2021/12/05 13:16:32;;;;;;;29.60;16.80;;;5.60;99.90;;;;;;5089943;28;20396;-72
2021/12/05 13:19:15;;;;;;;26.55;16.13;;;5.60;99.90;;;;;;5089518;28;20867;-72
2021/12/05 13:21:43;;;;;;;25.92;16.15;;;5.60;99.90;;;;;;5107689;28;20454;-72
2021/12/05 13:24:17;;;;;;;28.73;16.42;;;5.60;99.90;;;;;;5072835;28;20930;-72
2021/12/05 13:26:42;;;;;;;27.20;15.73;;;5.60;99.90;;;;;;5089149;28;20416;-72
2021/12/05 13:29:28;;;;;;;25.60;14.57;;;5.60;99.90;;;;;;5089699;28;20412;-72
2021/12/05 13:32:06;;;;;;;25.10;15.52;;;5.60;99.90;;;;;;5095300;28;20427;-72
2021/12/05 13:34:45;;;;;;;31.07;16.30;;;5.60;99.90;;;;;;5089324;28;20902;-72
2021/12/05 13:37:13;;;;;;;25.92;15.25;;;5.60;99.90;;;;;;5074181;28;20503;-72
2021/12/05 13:39:45;;;;;;;23.35;15.20;;;5.60;99.90;;;;;;5090349;28;21261;-72
2021/12/05 13:42:22;;;;;;;27.02;15.52;;;5.60;99.90;;;;;;5090151;28;20408;-72
2021/12/05 13:45:06;;;;;;;25.07;16.10;;;5.50;99.90;;;;;;5090546;28;20420;-72
2021/12/05 13:47:55;;;;;;;22.88;15.20;;;5.50;99.90;;;;;;5090479;28;20412;-72
2021/12/05 13:53:05;;;;;;;22.42;15.70;;;5.40;99.90;;;;;;5090018;28;20488;-73
2021/12/05 13:55:53;;;;;;;24.27;15.15;;;5.40;99.90;;;;;;5070297;28;20439;-72
2021/12/05 13:58:45;;;;;;;25.77;15.65;;;5.40;99.90;;;;;;5081555;28;20489;-75
2021/12/05 14:01:25;;;;;;;24.15;15.75;;;5.40;99.90;;;;;;5089873;28;20408;-73
2021/12/05 14:04:16;;;;;;;26.80;16.75;;;5.30;99.90;;;;;;5071646;28;20408;-73
2021/12/05 14:07:01;;;;;;;24.25;16.90;;;5.30;99.90;;;;;;5092476;28;20944;-73
2021/12/05 14:09:47;;;;;;;27.63;17.63;;;5.30;99.90;;;;;;5076835;28;20969;-75
2021/12/05 14:12:27;;;;;;;28.25;17.50;;;5.30;99.90;;;;;;5093712;28;20909;-72
2021/12/05 14:15:05;;;;;;;29.67;18.67;;;5.30;99.90;;;;;;5091072;28;20412;-74
2021/12/05 14:17:44;;;;;;;28.45;18.10;;;5.30;99.90;;;;;;5092256;28;20419;-75
2021/12/05 14:20:17;;;;;;;30.77;19.88;;;5.30;99.90;;;;;;5076461;28;20454;-73
2021/12/05 14:22:44;;;;;;;34.53;22.35;;;5.30;99.90;;;;;;5093434;28;20416;-73
2021/12/05 14:25:12;;;;;;;32.25;20.92;;;5.30;99.90;;;;;;5093051;28;20404;-73
2021/12/05 14:27:44;;;;;;;31.65;19.20;;;5.30;99.90;;;;;;5089118;28;20930;-73
2021/12/05 14:30:18;;;;;;;30.23;20.63;;;5.30;99.90;;;;;;5089577;28;20421;-73
2021/12/05 14:32:49;;;;;;;31.40;21.27;;;5.30;99.90;;;;;;5089350;28;20410;-73
2021/12/05 14:35:18;;;;;;;31.40;21.80;;;5.30;99.90;;;;;;5072988;28;20413;-73
2021/12/05 14:37:47;;;;;;;35.70;22.35;;;5.30;99.90;;;;;;5089283;28;20413;-74
2021/12/05 14:40:16;;;;;;;33.20;21.10;;;5.20;99.90;;;;;;5090098;28;20410;-75
2021/12/05 14:42:47;;;;;;;33.88;22.15;;;5.20;99.90;;;;;;5090245;28;20414;-73
2021/12/05 14:45:18;;;;;;;35.33;22.25;;;5.20;99.90;;;;;;5102455;28;20530;-73
2021/12/05 14:47:46;;;;;;;34.03;22.45;;;5.20;99.90;;;;;;5072036;28;20438;-73
2021/12/05 14:50:16;;;;;;;33.08;22.38;;;5.20;99.90;;;;;;5092027;28;20968;-73
2021/12/05 14:52:45;;;;;;;33.20;22.90;;;5.20;99.90;;;;;;5111419;28;20411;-75
2021/12/05 14:55:13;;;;;;;31.60;22.92;;;5.10;99.90;;;;;;5092827;28;20907;-74
2021/12/05 14:57:45;;;;;;;33.35;22.48;;;5.20;99.90;;;;;;5111312;28;20751;-74
2021/12/05 15:00:13;;;;;;;34.28;22.40;;;5.10;99.90;;;;;;5093058;28;20412;-74
2021/12/05 15:02:40;;;;;;;31.33;21.95;;;5.00;99.90;;;;;;5092857;28;20860;-74
2021/12/05 15:05:10;;;;;;;36.60;24.17;;;5.00;99.90;;;;;;5092495;28;20400;-75
2021/12/05 15:07:36;;;;;;;34.33;23.10;;;4.90;99.90;;;;;;5092594;28;20902;-75
2021/12/05 15:10:02;;;;;;;;;;;4.90;99.90;;;;;;5094612;28;20127;-75
2021/12/05 15:12:29;;;;;;;;;;;4.80;99.90;;;;;;5094965;28;20045;-75
2021/12/05 15:14:56;;;;;;;;;;;4.90;99.90;;;;;;5093888;28;19920;-75
2021/12/05 15:17:26;;;;;;;30.10;16.73;;;4.80;99.90;;;;;;5093996;28;20281;-75
2021/12/05 15:19:54;;;;;;;30.10;17.58;;;4.80;99.90;;;;;;5073922;28;20119;-75
2021/12/05 15:22:20;;;;;;;;;;;4.80;99.90;;;;;;5082561;28;20048;-75
2021/12/05 15:24:51;;;;;;;;;;;4.80;99.90;;;;;;5094213;28;19943;-75
2021/12/05 15:27:18;;;;;;;;;;;4.80;99.90;;;;;;5094233;28;19928;-75
2021/12/05 15:29:50;;;;;;;28.13;16.60;;;4.70;99.90;;;;;;5093579;28;20382;-75
2021/12/05 15:32:20;;;;;;;30.63;17.20;;;4.70;99.90;;;;;;5093855;28;20440;-75
2021/12/05 15:34:49;;;;;;;29.65;18.00;;;4.70;99.90;;;;;;5093601;28;20041;-75
2021/12/05 15:37:15;;;;;;;38.35;17.70;;;4.70;99.90;;;;;;5093332;28;20050;-75
2021/12/05 15:39:44;;;;;;;35.13;19.60;;;4.70;99.90;;;;;;5093121;28;20044;-75
2021/12/05 15:42:36;;;;;;;29.52;18.48;;;4.70;99.90;;;;;;5078363;28;20063;-76
2021/12/05 15:45:06;;;;;;;35.92;18.10;;;4.70;99.90;;;;;;5078450;28;20068;-75
2021/12/05 15:47:34;;;;;;;32.42;19.40;;;4.70;99.90;;;;;;5071905;28;20151;-74
2021/12/05 15:50:02;;;;;;;32.45;18.27;;;4.70;99.90;;;;;;5072905;28;20052;-74
2021/12/05 15:52:55;;;;;;;33.20;18.73;;;4.70;99.90;;;;;;5093019;28;20087;-74
2021/12/05 15:55:32;;;;;;;32.75;20.27;;;4.70;99.90;;;;;;5093638;28;20627;-75
2021/12/05 15:58:11;;;;;;;35.63;20.75;;;4.70;99.90;;;;;;5089964;28;20040;-75
2021/12/05 16:00:43;;;;;;;39.40;20.67;;;4.60;99.90;;;;;;5072814;28;20055;-73
2021/12/05 16:03:13;;;;;;;33.97;18.60;;;4.60;99.90;;;;;;5085854;28;20413;-73
2021/12/05 16:05:41;;;;;;;31.02;18.58;;;4.60;99.90;;;;;;5081904;28;20058;-73
2021/12/05 16:08:12;;;;;;;36.38;20.45;;;4.60;99.90;;;;;;5111484;28;20401;-73
2021/12/05 16:10:45;;;;;;;33.50;18.95;;;4.60;99.90;;;;;;5092765;28;20051;-74
2021/12/05 16:13:18;;;;;;;38.88;21.25;;;4.50;99.90;;;;;;5092610;28;20040;-74
2021/12/05 16:15:46;;;;;;;42.45;22.17;;;4.50;99.90;;;;;;5092589;28;20047;-74
2021/12/05 16:18:12;;;;;;;36.15;20.70;;;4.50;99.90;;;;;;5093189;28;20052;-75
2021/12/05 16:20:40;;;;;;;36.22;21.15;;;4.50;99.90;;;;;;5075930;28;20043;-74
2021/12/05 16:23:08;;;;;;;33.30;19.58;;;4.50;99.90;;;;;;5093233;28;20036;-74
2021/12/05 16:25:44;;;;;;;34.13;20.27;;;4.50;99.90;;;;;;5110971;28;20031;-74
2021/12/05 16:28:12;;;;;;;38.47;20.45;;;4.50;99.90;;;;;;5088784;28;20047;-74
2021/12/05 16:30:43;;;;;;;33.60;18.50;;;4.50;99.90;;;;;;5089307;28;20075;-74
2021/12/05 16:33:10;;;;;;;30.38;18.25;;;4.40;99.90;;;;;;5090826;28;20137;-74
2021/12/05 16:35:43;;;;;;;26.17;16.17;;;4.40;99.90;;;;;;5089234;28;20048;-74
2021/12/05 16:38:22;;;;;;;31.67;17.83;;;4.40;99.90;;;;;;5092937;28;20708;-74
2021/12/05 16:41:08;;;;;;;31.77;19.38;;;4.40;99.90;;;;;;5092560;28;20062;-74
2021/12/05 16:43:38;;;;;;;34.95;20.38;;;4.30;99.90;;;;;;5092816;28;20043;-74
2021/12/05 16:46:14;;;;;;;29.23;18.40;;;4.30;99.90;;;;;;5092646;28;20123;-74
2021/12/05 16:48:42;;;;;;;33.20;19.73;;;4.30;99.90;;;;;;5092368;28;20043;-74
2021/12/05 16:51:18;;;;;;;30.08;18.17;;;4.20;99.90;;;;;;5092187;28;20047;-74
2021/12/05 16:53:47;;;;;;;32.42;19.85;;;4.20;99.90;;;;;;5092834;28;20383;-74
2021/12/05 16:56:17;;;;;;;30.98;17.92;;;4.20;99.90;;;;;;5092223;28;20099;-73
2021/12/05 16:58:44;;;;;;;32.70;20.20;;;4.20;99.90;;;;;;5110490;28;20130;-75
2021/12/05 17:01:19;;;;;;;25.35;16.90;;;4.20;99.90;;;;;;5110688;28;20055;-74
2021/12/05 17:03:46;;;;;;;;;;;4.10;99.90;;;;;;5088638;28;20417;-75
2021/12/05 17:06:12;;;;;;;;;;;4.10;99.90;;;;;;5092057;28;19928;-75
2021/12/05 17:08:44;;;;;;;;;;;4.00;99.90;;;;;;5075861;28;19964;-75
2021/12/05 17:11:15;;;;;;;30.77;18.60;;;4.00;99.90;;;;;;5091889;28;19931;-74
2021/12/05 17:13:45;;;;;;;33.22;20.00;;;4.00;99.90;;;;;;5092195;28;20131;-74
2021/12/05 17:16:23;;;;;;;31.63;18.83;;;4.00;99.90;;;;;;5074695;28;20057;-75
2021/12/05 17:19:03;;;;;;;27.40;16.58;;;4.00;99.90;;;;;;5075347;28;20035;-75
2021/12/05 17:21:39;;;;;;;28.50;16.77;;;3.90;99.90;;;;;;5075013;28;20036;-75
2021/12/05 17:24:25;;;;;;;26.48;17.60;;;3.90;99.90;;;;;;5092502;28;20401;-75
2021/12/05 17:27:05;;;;;;;28.42;17.63;;;3.90;99.90;;;;;;5090068;28;20043;-74
2021/12/05 17:29:42;;;;;;;22.77;15.18;;;3.90;99.90;;;;;;5088831;28;20074;-75
2021/12/05 17:32:19;;;;;;;22.27;15.82;;;3.80;99.90;;;;;;5088366;28;20044;-74
2021/12/05 17:34:51;;;;;;;23.88;14.77;;;3.80;99.90;;;;;;5088506;28;20113;-75
2021/12/05 17:37:23;;;;;;;24.83;16.75;;;3.80;99.90;;;;;;5092053;28;20062;-74
2021/12/05 17:39:49;;;;;;;25.42;17.23;;;3.80;99.90;;;;;;5109167;28;20405;-75
2021/12/05 17:42:19;;;;;;;24.83;15.35;;;3.80;99.90;;;;;;5091869;28;20116;-74
2021/12/05 17:44:47;;;;;;;22.98;15.48;;;3.70;99.90;;;;;;5071461;28;20113;-75
2021/12/05 17:47:15;;;;;;;23.00;16.35;;;3.80;99.90;;;;;;5071859;28;20051;-75
2021/12/05 17:49:43;;;;;;;28.15;17.55;;;3.70;99.90;;;;;;5071481;28;20131;-75
2021/12/05 17:52:11;;;;;;;27.45;16.45;;;3.70;99.90;;;;;;5085365;28;20075;-75
2021/12/05 17:55:30;;;;;;;23.98;15.85;;;3.70;99.90;;;;;;5085735;28;20050;-75
2021/12/05 17:57:38;;;;;;;25.40;16.95;;;3.70;99.90;;;;;;5092111;28;20052;-75
2021/12/05 18:00:23;;;;;;;27.02;17.65;;;3.70;99.90;;;;;;5108481;28;20054;-75
2021/12/05 18:02:55;;;;;;;27.83;18.60;;;3.70;99.90;;;;;;5092068;28;20092;-75
2021/12/05 18:05:27;;;;;;;25.90;17.33;;;3.70;99.90;;;;;;5091389;28;20040;-74
2021/12/05 18:07:57;;;;;;;28.58;17.83;;;3.60;99.90;;;;;;5109601;28;20087;-74
2021/12/05 18:10:28;;;;;;;26.85;17.58;;;3.70;99.90;;;;;;5109403;28;20047;-74
2021/12/05 18:12:58;;;;;;;34.40;26.70;;;3.60;99.90;;;;;;5090120;28;20444;-75
2021/12/05 18:15:28;;;;;;;34.90;26.63;;;3.60;99.90;;;;;;5107267;28;20440;-75
2021/12/05 18:17:56;;;;;;;34.08;27.50;;;3.60;99.90;;;;;;5088602;28;20408;-71
2021/12/05 18:20:25;;;;;;;30.90;22.02;;;3.60;99.90;;;;;;5109563;28;20049;-71